
Distance (Route):
Temperature : 0°C
Humidity : 0%
Pressure : 0hPa| Receiver | Date | Latitude | Longitude | Direction | Speed | Altitude | Climb | Temperature | Humidity | Pressure | Voltage | Killtimer | Uptime | BKT | XDATA |
|---|---|---|---|---|---|---|---|---|---|---|---|---|---|---|---|
| SQ9PSP-11 | 2026-09-02 07:36:02 | 50.87210 | 21.83749 | 89° | 38km/h | 17519m | -22.4m/s | 0°C | 0% | 0hPa | 0V | 00:00:00 | 00:00:00 | 00:00:00 | |
| OM5KV | 2026-09-02 07:35:48 | 50.87192 | 21.83506 | 66° | 57km/h | 17523m | 3.4m/s | 0°C | 0% | 0hPa | 0V | 00:00:00 | 00:00:00 | 00:00:00 | |
| SQ9PSP-11 | 2026-09-02 07:35:44 | 50.87182 | 21.83427 | 63° | 58km/h | 17509m | 1.5m/s | 0°C | 0% | 0hPa | 0V | 00:00:00 | 00:00:00 | 00:00:00 | |
| OM5KV | 2026-09-02 07:35:33 | 50.87155 | 21.83196 | 85° | 53km/h | 17466m | 2.0m/s | 0°C | 0% | 0hPa | 0V | 00:00:00 | 00:00:00 | 00:00:00 | |
| SQ9PSP-11 | 2026-09-02 07:35:28 | 50.87138 | 21.83073 | 76° | 60km/h | 17451m | 2.1m/s | 0°C | 0% | 0hPa | 0V | 00:00:00 | 00:00:00 | 00:00:00 | |
| OM5KV | 2026-09-02 07:35:22 | 50.87119 | 21.82950 | 86° | 60km/h | 17427m | 2.4m/s | 0°C | 0% | 0hPa | 0V | 00:00:00 | 00:00:00 | 00:00:00 | |
| OM5KV | 2026-09-02 07:35:16 | 50.87097 | 21.82833 | 88° | 47km/h | 17404m | 2.6m/s | 0°C | 0% | 0hPa | 0V | 00:00:00 | 00:00:00 | 00:00:00 | |
| SQ9PSP-11 | 2026-09-02 07:35:10 | 50.87073 | 21.82718 | 84° | 40km/h | 17380m | 1.8m/s | 0°C | 0% | 0hPa | 0V | 00:00:00 | 00:00:00 | 00:00:00 | |
| OM5KV | 2026-09-02 07:35:00 | 50.87041 | 21.82540 | 77° | 49km/h | 17337m | 3.7m/s | 0°C | 0% | 0hPa | 0V | 00:00:00 | 00:00:00 | 00:00:00 | |
| OM5KV | 2026-09-02 07:34:59 | 50.87040 | 21.82522 | 93° | 42km/h | 17335m | 1.7m/s | 0°C | 0% | 0hPa | 0V | 00:00:00 | 00:00:00 | 00:00:00 | |
| OM5KV | 2026-09-02 07:34:43 | 50.86990 | 21.82268 | 82° | 44km/h | 17272m | 3.5m/s | 0°C | 0% | 0hPa | 0V | 00:00:00 | 00:00:00 | 00:00:00 | |
| SQ9PSP-11 | 2026-09-02 07:34:35 | 50.86962 | 21.82154 | 56° | 38km/h | 17239m | 4.8m/s | 0°C | 0% | 0hPa | 0V | 00:00:00 | 00:00:00 | 00:00:00 | |
| OM5KV | 2026-09-02 07:34:27 | 50.86940 | 21.82050 | 93° | 26km/h | 17207m | 1.5m/s | 0°C | 0% | 0hPa | 0V | 00:00:00 | 00:00:00 | 00:00:00 | |
| OM5KV | 2026-09-02 07:34:18 | 50.86917 | 21.81942 | 65° | 38km/h | 17172m | 1.6m/s | 0°C | 0% | 0hPa | 0V | 00:00:00 | 00:00:00 | 00:00:00 | |
| OM5KV | 2026-09-02 07:34:03 | 50.86891 | 21.81804 | 102° | 26km/h | 17111m | 2.9m/s | 0°C | 0% | 0hPa | 0V | 00:00:00 | 00:00:00 | 00:00:00 | |
| OM5KV | 2026-09-02 07:33:57 | 50.86878 | 21.81756 | 98° | 37km/h | 17086m | 0.2m/s | 0°C | 0% | 0hPa | 0V | 00:00:00 | 00:00:00 | 00:00:00 | |
| OM5KV | 2026-09-02 07:33:52 | 50.86873 | 21.81711 | 55° | 5km/h | 17064m | 2.9m/s | 0°C | 0% | 0hPa | 0V | 00:00:00 | 00:00:00 | 00:00:00 | |
| OM5KV | 2026-09-02 07:33:46 | 50.86869 | 21.81662 | 75° | 31km/h | 17040m | 1.1m/s | 0°C | 0% | 0hPa | 0V | 00:00:00 | 00:00:00 | 00:00:00 | |
| OM5KV | 2026-09-02 07:33:29 | 50.86860 | 21.81488 | 69° | 37km/h | 16979m | 0.6m/s | 0°C | 0% | 0hPa | 0V | 00:00:00 | 00:00:00 | 00:00:00 | |
| OM5KV | 2026-09-02 07:33:23 | 50.86851 | 21.81417 | 85° | 22km/h | 16958m | 3.3m/s | 0°C | 0% | 0hPa | 0V | 00:00:00 | 00:00:00 | 00:00:00 | |
| OM5KV | 2026-09-02 07:33:15 | 50.86842 | 21.81327 | 64° | 38km/h | 16927m | 0.9m/s | 0°C | 0% | 0hPa | 0V | 00:00:00 | 00:00:00 | 00:00:00 | |
| OM5KV | 2026-09-02 07:33:09 | 50.86837 | 21.81260 | 51° | 35km/h | 16906m | 2.0m/s | 0°C | 0% | 0hPa | 0V | 00:00:00 | 00:00:00 | 00:00:00 | |
| SQ9PSP-11 | 2026-09-02 07:33:04 | 50.86836 | 21.81199 | 110° | 18km/h | 16889m | 1.3m/s | 0°C | 0% | 0hPa | 0V | 00:00:00 | 00:00:00 | 00:00:00 | |
| OM5KV | 2026-09-02 07:32:54 | 50.86841 | 21.81092 | 121° | 22km/h | 16850m | 1.9m/s | 0°C | 0% | 0hPa | 0V | 00:00:00 | 00:00:00 | 00:00:00 | |
| OM5KV | 2026-09-02 07:32:48 | 50.86845 | 21.81034 | 121° | 35km/h | 16828m | 3.7m/s | 0°C | 0% | 0hPa | 0V | 00:00:00 | 00:00:00 | 00:00:00 | |
| OM5KV | 2026-09-02 07:32:42 | 50.86858 | 21.80975 | 78° | 29km/h | 16808m | 5.6m/s | 0°C | 0% | 0hPa | 0V | 00:00:00 | 00:00:00 | 00:00:00 | |
| SP9KGR-15 | 2026-09-02 07:32:40 | 50.86863 | 21.80953 | 135° | 18km/h | 16798m | 2.9m/s | 0°C | 0% | 0hPa | 0V | 00:00:00 | 00:00:00 | 00:00:00 | |
| SQ9PSP-11 | 2026-09-02 07:32:37 | 50.86868 | 21.80920 | 116° | 24km/h | 16787m | 2.3m/s | 0°C | 0% | 0hPa | 0V | 00:00:00 | 00:00:00 | 00:00:00 | |
| OM5KV | 2026-09-02 07:32:34 | 50.86873 | 21.80884 | 129° | 26km/h | 16776m | 1.6m/s | 0°C | 0% | 0hPa | 0V | 00:00:00 | 00:00:00 | 00:00:00 | |
| OM5KV | 2026-09-02 07:32:27 | 50.86887 | 21.80798 | 79° | 22km/h | 16749m | 1.0m/s | 0°C | 0% | 0hPa | 0V | 00:00:00 | 00:00:00 | 00:00:00 | |
| SQ9PSP-11 | 2026-09-02 07:32:22 | 50.86896 | 21.80726 | 112° | 40km/h | 16731m | 2.3m/s | 0°C | 0% | 0hPa | 0V | 00:00:00 | 00:00:00 | 00:00:00 | |
| OM5KV | 2026-09-02 07:32:11 | 50.86910 | 21.80552 | 99° | 35km/h | 16693m | 3.4m/s | 0°C | 0% | 0hPa | 0V | 00:00:00 | 00:00:00 | 00:00:00 | |
| SP9KGR-15 | 2026-09-02 07:32:04 | 50.86910 | 21.80442 | 77° | 31km/h | 16668m | -0.2m/s | 0°C | 0% | 0hPa | 0V | 00:00:00 | 00:00:00 | 00:00:00 | |
| OM5KV | 2026-09-02 07:31:59 | 50.86906 | 21.80363 | 99° | 53km/h | 16649m | 2.6m/s | 0°C | 0% | 0hPa | 0V | 00:00:00 | 00:00:00 | 00:00:00 | |
| OM5KV | 2026-09-02 07:31:55 | 50.86904 | 21.80299 | 90° | 53km/h | 16637m | 0.5m/s | 0°C | 0% | 0hPa | 0V | 00:00:00 | 00:00:00 | 00:00:00 | |
| OM5KV | 2026-09-02 07:31:50 | 50.86899 | 21.80217 | 86° | 35km/h | 16621m | 5.1m/s | 0°C | 0% | 0hPa | 0V | 00:00:00 | 00:00:00 | 00:00:00 | |
| SP9KGR-15 | 2026-09-02 07:31:47 | 50.86896 | 21.80161 | 80° | 42km/h | 16610m | 1.0m/s | 0°C | 0% | 0hPa | 0V | 00:00:00 | 00:00:00 | 00:00:00 | |
| OM5KV | 2026-09-02 07:31:31 | 50.86862 | 21.79892 | 59° | 38km/h | 16554m | 1.9m/s | 0°C | 0% | 0hPa | 0V | 00:00:00 | 00:00:00 | 00:00:00 | |
| SP9KGR-15 | 2026-09-02 07:31:29 | 50.86857 | 21.79857 | 83° | 46km/h | 16547m | 2.5m/s | 0°C | 0% | 0hPa | 0V | 00:00:00 | 00:00:00 | 00:00:00 | |
| SQ9PSP-11 | 2026-09-02 07:31:28 | 50.86853 | 21.79842 | 53° | 37km/h | 16544m | 3.9m/s | 0°C | 0% | 0hPa | 0V | 00:00:00 | 00:00:00 | 00:00:00 | |
| OM5KV | 2026-09-02 07:31:11 | 50.86793 | 21.79574 | 55° | 42km/h | 16486m | 1.5m/s | 0°C | 0% | 0hPa | 0V | 00:00:00 | 00:00:00 | 00:00:00 | |
| SQ9PSP-11 | 2026-09-02 07:31:02 | 50.86763 | 21.79434 | 42° | 38km/h | 16454m | 0.1m/s | 0°C | 0% | 0hPa | 0V | 00:00:00 | 00:00:00 | 00:00:00 | |
| SP9KGR-15 | 2026-09-02 07:30:54 | 50.86727 | 21.79311 | 78° | 47km/h | 16428m | 0.3m/s | 0°C | 0% | 0hPa | 0V | 00:00:00 | 00:00:00 | 00:00:00 | |
| SQ9PSP-11 | 2026-09-02 07:30:46 | 50.86692 | 21.79188 | 55° | 49km/h | 16400m | 5.1m/s | 0°C | 0% | 0hPa | 0V | 00:00:00 | 00:00:00 | 00:00:00 | |
| SP9KGR-15 | 2026-09-02 07:30:33 | 50.86638 | 21.79012 | 74° | 46km/h | 16356m | 1.3m/s | 0°C | 0% | 0hPa | 0V | 00:00:00 | 00:00:00 | 00:00:00 | |
| OM5KV | 2026-09-02 07:30:30 | 50.86625 | 21.78973 | 73° | 47km/h | 16344m | 1.4m/s | 0°C | 0% | 0hPa | 0V | 00:00:00 | 00:00:00 | 00:00:00 | |
| SQ9PSP-11 | 2026-09-02 07:30:29 | 50.86619 | 21.78958 | 45° | 47km/h | 16342m | 3.3m/s | 0°C | 0% | 0hPa | 0V | 00:00:00 | 00:00:00 | 00:00:00 | |
| SQ9PSP-11 | 2026-09-02 07:30:05 | 50.86507 | 21.78636 | 68° | 40km/h | 16256m | 4.3m/s | 0°C | 0% | 0hPa | 0V | 00:00:00 | 00:00:00 | 00:00:00 | |
| OM5KV | 2026-09-02 07:30:02 | 50.86492 | 21.78601 | 77° | 46km/h | 16247m | 1.4m/s | 0°C | 0% | 0hPa | 0V | 00:00:00 | 00:00:00 | 00:00:00 | |
| SQ9PSP-11 | 2026-09-02 07:29:47 | 50.86421 | 21.78420 | 40° | 24km/h | 16194m | 2.0m/s | 0°C | 0% | 0hPa | 0V | 00:00:00 | 00:00:00 | 00:00:00 | |
| OM5KV | 2026-09-02 07:29:45 | 50.86413 | 21.78395 | 64° | 46km/h | 16187m | 1.9m/s | 0°C | 0% | 0hPa | 0V | 00:00:00 | 00:00:00 | 00:00:00 | |
| OM5KV | 2026-09-02 07:29:39 | 50.86386 | 21.78334 | 80° | 31km/h | 16165m | 2.4m/s | 0°C | 0% | 0hPa | 0V | 00:00:00 | 00:00:00 | 00:00:00 | |
| OM5KV | 2026-09-02 07:29:30 | 50.86347 | 21.78220 | 55° | 27km/h | 16131m | 0.5m/s | 0°C | 0% | 0hPa | 0V | 00:00:00 | 00:00:00 | 00:00:00 | |
| OM5KV | 2026-09-02 07:29:22 | 50.86313 | 21.78109 | 71° | 47km/h | 16104m | 1.5m/s | 0°C | 0% | 0hPa | 0V | 00:00:00 | 00:00:00 | 00:00:00 | |
| SQ9PSP-11 | 2026-09-02 07:29:11 | 50.86261 | 21.77958 | 73° | 47km/h | 16065m | 1.8m/s | 0°C | 0% | 0hPa | 0V | 00:00:00 | 00:00:00 | 00:00:00 | |
| OM5KV | 2026-09-02 07:29:08 | 50.86245 | 21.77919 | 59° | 37km/h | 16055m | 4.7m/s | 0°C | 0% | 0hPa | 0V | 00:00:00 | 00:00:00 | 00:00:00 | |
| OM5KV | 2026-09-02 07:29:03 | 50.86219 | 21.77849 | 68° | 51km/h | 16041m | 1.1m/s | 0°C | 0% | 0hPa | 0V | 00:00:00 | 00:00:00 | 00:00:00 | |
| SP9KGR-15 | 2026-09-02 07:28:55 | 50.86184 | 21.77734 | 69° | 51km/h | 16009m | 0.6m/s | 0°C | 0% | 0hPa | 0V | 00:00:00 | 00:00:00 | 00:00:00 | |
| OM5KV | 2026-09-02 07:28:53 | 50.86177 | 21.77710 | 69° | 31km/h | 16000m | 1.7m/s | 0°C | 0% | 0hPa | 0V | 00:00:00 | 00:00:00 | 00:00:00 | |
| OM5KV | 2026-09-02 07:28:44 | 50.86140 | 21.77577 | 74° | 47km/h | 15969m | 0.4m/s | 0°C | 0% | 0hPa | 0V | 00:00:00 | 00:00:00 | 00:00:00 | |
| SQ9PSP-11 | 2026-09-02 07:28:40 | 50.86124 | 21.77522 | 79° | 33km/h | 15954m | 3.1m/s | 0°C | 0% | 0hPa | 0V | 00:00:00 | 00:00:00 | 00:00:00 | |
| OM5KV | 2026-09-02 07:28:32 | 50.86088 | 21.77413 | 55° | 55km/h | 15926m | 2.7m/s | 0°C | 0% | 0hPa | 0V | 00:00:00 | 00:00:00 | 00:00:00 | |
| SP9KGR-15 | 2026-09-02 07:28:27 | 50.86070 | 21.77342 | 73° | 29km/h | 15906m | 2.4m/s | 0°C | 0% | 0hPa | 0V | 00:00:00 | 00:00:00 | 00:00:00 | |
| SP9KGR-15 | 2026-09-02 07:27:43 | 50.85987 | 21.76664 | 95° | 49km/h | 15746m | 1.4m/s | 0°C | 0% | 0hPa | 0V | 00:00:00 | 00:00:00 | 00:00:00 | |
| OM5KV | 2026-09-02 07:27:37 | 50.85980 | 21.76567 | 103° | 47km/h | 15722m | 1.1m/s | 0°C | 0% | 0hPa | 0V | 00:00:00 | 00:00:00 | 00:00:00 | |
| OM5KV | 2026-09-02 07:27:32 | 50.85974 | 21.76491 | 66° | 38km/h | 15705m | 1.5m/s | 0°C | 0% | 0hPa | 0V | 00:00:00 | 00:00:00 | 00:00:00 | |
| SQ9PSP-11 | 2026-09-02 07:27:30 | 50.85973 | 21.76458 | 103° | 37km/h | 15698m | 2.5m/s | 0°C | 0% | 0hPa | 0V | 00:00:00 | 00:00:00 | 00:00:00 | |
| OM5KV | 2026-09-02 07:27:23 | 50.85963 | 21.76351 | 96° | 18km/h | 15673m | 2.7m/s | 0°C | 0% | 0hPa | 0V | 00:00:00 | 00:00:00 | 00:00:00 | |
| OM5KV | 2026-09-02 07:27:15 | 50.85943 | 21.76251 | 80° | 46km/h | 15639m | 2.8m/s | 0°C | 0% | 0hPa | 0V | 00:00:00 | 00:00:00 | 00:00:00 | |
| OM5KV | 2026-09-02 07:26:58 | 50.85910 | 21.76032 | 68° | 27km/h | 15576m | 1.9m/s | 0°C | 0% | 0hPa | 0V | 00:00:00 | 00:00:00 | 00:00:00 | |
| OM5KV | 2026-09-02 07:26:56 | 50.85909 | 21.76003 | 85° | 42km/h | 15569m | 3.2m/s | 0°C | 0% | 0hPa | 0V | 00:00:00 | 00:00:00 | 00:00:00 | |
| SQ9PSP-11 | 2026-09-02 07:26:49 | 50.85896 | 21.75903 | 101° | 33km/h | 15543m | 3.9m/s | 0°C | 0% | 0hPa | 0V | 00:00:00 | 00:00:00 | 00:00:00 | |
| OM5KV | 2026-09-02 07:26:41 | 50.85879 | 21.75767 | 77° | 49km/h | 15512m | 1.4m/s | 0°C | 0% | 0hPa | 0V | 00:00:00 | 00:00:00 | 00:00:00 | |
| SP9KGR-15 | 2026-09-02 07:26:26 | 50.85851 | 21.75490 | 76° | 53km/h | 15454m | 2.4m/s | 0°C | 0% | 0hPa | 0V | 00:00:00 | 00:00:00 | 00:00:00 | |
| SP9KGR-15 | 2026-09-02 07:26:09 | 50.85839 | 21.75195 | 92° | 60km/h | 15391m | 1.2m/s | 0°C | 0% | 0hPa | 0V | 00:00:00 | 00:00:00 | 00:00:00 | |
| SP9KGR-15 | 2026-09-02 07:25:51 | 50.85852 | 21.74899 | 90° | 47km/h | 15320m | 0.5m/s | 0°C | 0% | 0hPa | 0V | 00:00:00 | 00:00:00 | 00:00:00 | |
| SQ9PSP-11 | 2026-09-02 07:25:39 | 50.85875 | 21.74677 | 89° | 53km/h | 15274m | 1.8m/s | 0°C | 0% | 0hPa | 0V | 00:00:00 | 00:00:00 | 00:00:00 | |
| SP9KGR-15 | 2026-09-02 07:25:34 | 50.85887 | 21.74577 | 124° | 46km/h | 15256m | 2.0m/s | 0°C | 0% | 0hPa | 0V | 00:00:00 | 00:00:00 | 00:00:00 | |
| SP9KGR-15 | 2026-09-02 07:25:18 | 50.85922 | 21.74222 | 91° | 69km/h | 15198m | 2.0m/s | 0°C | 0% | 0hPa | 0V | 00:00:00 | 00:00:00 | 00:00:00 | |
| SQ9PSP-11 | 2026-09-02 07:25:10 | 50.85940 | 21.74029 | 86° | 51km/h | 15169m | 0.3m/s | 0°C | 0% | 0hPa | 0V | 00:00:00 | 00:00:00 | 00:00:00 | |
| SP9KGR-15 | 2026-09-02 07:24:57 | 50.85964 | 21.73727 | 108° | 69km/h | 15122m | 1.3m/s | 0°C | 0% | 0hPa | 0V | 00:00:00 | 00:00:00 | 00:00:00 | |
| SQ9PSP-11 | 2026-09-02 07:24:51 | 50.85977 | 21.73584 | 97° | 55km/h | 15096m | 2.7m/s | 0°C | 0% | 0hPa | 0V | 00:00:00 | 00:00:00 | 00:00:00 | |
| SP9KGR-15 | 2026-09-02 07:24:40 | 50.86006 | 21.73307 | 90° | 55km/h | 15057m | 0.7m/s | 0°C | 0% | 0hPa | 0V | 00:00:00 | 00:00:00 | 00:00:00 | |
| SQ9PSP-11 | 2026-09-02 07:24:34 | 50.86020 | 21.73154 | 97° | 55km/h | 15033m | 5.2m/s | 0°C | 0% | 0hPa | 0V | 00:00:00 | 00:00:00 | 00:00:00 | |
| SP9KGR-15 | 2026-09-02 07:24:23 | 50.86040 | 21.72873 | 93° | 73km/h | 14992m | 3.3m/s | 0°C | 0% | 0hPa | 0V | 00:00:00 | 00:00:00 | 00:00:00 | |
| SQ9PSP-11 | 2026-09-02 07:24:19 | 50.86047 | 21.72761 | 100° | 82km/h | 14977m | 1.1m/s | 0°C | 0% | 0hPa | 0V | 00:00:00 | 00:00:00 | 00:00:00 | |
| SP9KGR-15 | 2026-09-02 07:24:07 | 50.86067 | 21.72425 | 109° | 82km/h | 14928m | 3.0m/s | 0°C | 0% | 0hPa | 0V | 00:00:00 | 00:00:00 | 00:00:00 | |
| SQ9PSP-11 | 2026-09-02 07:24:03 | 50.86073 | 21.72304 | 100° | 66km/h | 14910m | 3.6m/s | 0°C | 0% | 0hPa | 0V | 00:00:00 | 00:00:00 | 00:00:00 | |
| SP9KGR-15 | 2026-09-02 07:23:51 | 50.86078 | 21.71945 | 102° | 62km/h | 14865m | 0.4m/s | 0°C | 0% | 0hPa | 0V | 00:00:00 | 00:00:00 | 00:00:00 | |
| SQ9PSP-11 | 2026-09-02 07:23:46 | 50.86074 | 21.71804 | 85° | 78km/h | 14844m | 2.6m/s | 0°C | 0% | 0hPa | 0V | 00:00:00 | 00:00:00 | 00:00:00 | |
| SP9KGR-15 | 2026-09-02 07:23:36 | 50.86066 | 21.71528 | 83° | 75km/h | 14806m | 1.5m/s | 0°C | 0% | 0hPa | 0V | 00:00:00 | 00:00:00 | 00:00:00 | |
| SQ9PSP-11 | 2026-09-02 07:23:30 | 50.86060 | 21.71369 | 80° | 60km/h | 14783m | 2.3m/s | 0°C | 0% | 0hPa | 0V | 00:00:00 | 00:00:00 | 00:00:00 | |
| SP9KGR-15 | 2026-09-02 07:23:20 | 50.86041 | 21.71108 | 66° | 55km/h | 14745m | 2.9m/s | 0°C | 0% | 0hPa | 0V | 00:00:00 | 00:00:00 | 00:00:00 | |
| SP9KGR-15 | 2026-09-02 07:23:04 | 50.86006 | 21.70723 | 106° | 49km/h | 14685m | 3.9m/s | 0°C | 0% | 0hPa | 0V | 00:00:00 | 00:00:00 | 00:00:00 | |
| SP9KGR-15 | 2026-09-02 07:22:48 | 50.86000 | 21.70363 | 95° | 46km/h | 14618m | 4.7m/s | 0°C | 0% | 0hPa | 0V | 00:00:00 | 00:00:00 | 00:00:00 | |
| SP9KGR-15 | 2026-09-02 07:22:33 | 50.86019 | 21.70014 | 115° | 57km/h | 14564m | 0.2m/s | 0°C | 0% | 0hPa | 0V | 00:00:00 | 00:00:00 | 00:00:00 | |
| SP9KGR-15 | 2026-09-02 07:22:14 | 50.86038 | 21.69529 | 93° | 84km/h | 14492m | 1.7m/s | 0°C | 0% | 0hPa | 0V | 00:00:00 | 00:00:00 | 00:00:00 | |
| SP9KGR-15 | 2026-09-02 07:21:57 | 50.86029 | 21.69084 | 80° | 57km/h | 14427m | 1.9m/s | 0°C | 0% | 0hPa | 0V | 00:00:00 | 00:00:00 | 00:00:00 | |
| SP9KGR-15 | 2026-09-02 07:21:38 | 50.86022 | 21.68634 | 106° | 64km/h | 14360m | 2.4m/s | 0°C | 0% | 0hPa | 0V | 00:00:00 | 00:00:00 | 00:00:00 | |
| SQ9PSP-11 | 2026-09-02 07:21:22 | 50.86029 | 21.68258 | 93° | 57km/h | 14301m | 6.1m/s | 0°C | 0% | 0hPa | 0V | 00:00:00 | 00:00:00 | 00:00:00 | |
| SP9KGR-15 | 2026-09-02 07:21:21 | 50.86029 | 21.68236 | 88° | 51km/h | 14297m | 1.8m/s | 0°C | 0% | 0hPa | 0V | 00:00:00 | 00:00:00 | 00:00:00 | |
| SQ9PSP-11 | 2026-09-02 07:21:07 | 50.86040 | 21.67887 | 88° | 57km/h | 14248m | 6.2m/s | 0°C | 0% | 0hPa | 0V | 00:00:00 | 00:00:00 | 00:00:00 | |
| SP9KGR-15 | 2026-09-02 07:21:02 | 50.86046 | 21.67758 | 99° | 80km/h | 14230m | 0.3m/s | 0°C | 0% | 0hPa | 0V | 00:00:00 | 00:00:00 | 00:00:00 | |
| SP9KGR-15 | 2026-09-02 07:20:45 | 50.86066 | 21.67303 | 91° | 69km/h | 14166m | 4.4m/s | 0°C | 0% | 0hPa | 0V | 00:00:00 | 00:00:00 | 00:00:00 | |
| SQ9PSP-11 | 2026-09-02 07:20:32 | 50.86075 | 21.66935 | 87° | 64km/h | 14117m | 0.7m/s | 0°C | 0% | 0hPa | 0V | 00:00:00 | 00:00:00 | 00:00:00 | |
| SP9KGR-15 | 2026-09-02 07:20:29 | 50.86076 | 21.66847 | 82° | 66km/h | 14105m | 1.9m/s | 0°C | 0% | 0hPa | 0V | 00:00:00 | 00:00:00 | 00:00:00 | |
| SP9KGR-15 | 2026-09-02 07:20:11 | 50.86065 | 21.66304 | 83° | 78km/h | 14043m | 2.8m/s | 0°C | 0% | 0hPa | 0V | 00:00:00 | 00:00:00 | 00:00:00 | |
| SQ9PSP-11 | 2026-09-02 07:19:58 | 50.86049 | 21.65907 | 81° | 77km/h | 13999m | 1.2m/s | 0°C | 0% | 0hPa | 0V | 00:00:00 | 00:00:00 | 00:00:00 | |
| SP9KGR-15 | 2026-09-02 07:19:49 | 50.86036 | 21.65618 | 84° | 73km/h | 13962m | 2.0m/s | 0°C | 0% | 0hPa | 0V | 00:00:00 | 00:00:00 | 00:00:00 | |
| SQ9PSP-11 | 2026-09-02 07:19:35 | 50.86002 | 21.65179 | 75° | 77km/h | 13910m | 2.5m/s | 0°C | 0% | 0hPa | 0V | 00:00:00 | 00:00:00 | 00:00:00 | |
| SP9KGR-15 | 2026-09-02 07:19:30 | 50.85990 | 21.65029 | 85° | 66km/h | 13892m | 2.0m/s | 0°C | 0% | 0hPa | 0V | 00:00:00 | 00:00:00 | 00:00:00 | |
| SQ9PSP-11 | 2026-09-02 07:19:20 | 50.85974 | 21.64728 | 94° | 82km/h | 13857m | 1.4m/s | 0°C | 0% | 0hPa | 0V | 00:00:00 | 00:00:00 | 00:00:00 | |
| SP9KGR-15 | 2026-09-02 07:19:14 | 50.85964 | 21.64548 | 98° | 75km/h | 13834m | 0.6m/s | 0°C | 0% | 0hPa | 0V | 00:00:00 | 00:00:00 | 00:00:00 | |
| SQ9PSP-11 | 2026-09-02 07:19:04 | 50.85954 | 21.64226 | 95° | 64km/h | 13797m | 4.8m/s | 0°C | 0% | 0hPa | 0V | 00:00:00 | 00:00:00 | 00:00:00 | |
| SP9KGR-15 | 2026-09-02 07:18:56 | 50.85949 | 21.63978 | 92° | 88km/h | 13768m | 2.1m/s | 0°C | 0% | 0hPa | 0V | 00:00:00 | 00:00:00 | 00:00:00 | |
| SQ9PSP-11 | 2026-09-02 07:18:47 | 50.85938 | 21.63699 | 79° | 78km/h | 13735m | 2.2m/s | 0°C | 0% | 0hPa | 0V | 00:00:00 | 00:00:00 | 00:00:00 | |
| SP9KGR-15 | 2026-09-02 07:18:38 | 50.85925 | 21.63423 | 79° | 84km/h | 13700m | 4.0m/s | 0°C | 0% | 0hPa | 0V | 00:00:00 | 00:00:00 | 00:00:00 | |
| SQ9PSP-11 | 2026-09-02 07:18:29 | 50.85904 | 21.63144 | 74° | 89km/h | 13669m | 4.9m/s | 0°C | 0% | 0hPa | 0V | 00:00:00 | 00:00:00 | 00:00:00 | |
| SP9KGR-15 | 2026-09-02 07:18:20 | 50.85871 | 21.62864 | 79° | 93km/h | 13637m | 2.1m/s | 0°C | 0% | 0hPa | 0V | 00:00:00 | 00:00:00 | 00:00:00 | |
| SQ9PSP-11 | 2026-09-02 07:18:13 | 50.85849 | 21.62646 | 78° | 62km/h | 13612m | 5.4m/s | 0°C | 0% | 0hPa | 0V | 00:00:00 | 00:00:00 | 00:00:00 | |
| SQ9PSP-11 | 2026-09-02 07:17:55 | 50.85808 | 21.62101 | 91° | 77km/h | 13544m | 1.2m/s | 0°C | 0% | 0hPa | 0V | 00:00:00 | 00:00:00 | 00:00:00 | |
| SP9KGR-15 | 2026-09-02 07:17:48 | 50.85788 | 21.61885 | 84° | 95km/h | 13518m | 1.9m/s | 0°C | 0% | 0hPa | 0V | 00:00:00 | 00:00:00 | 00:00:00 | |
| SQ9PSP-11 | 2026-09-02 07:17:38 | 50.85760 | 21.61582 | 88° | 62km/h | 13478m | 2.1m/s | 0°C | 0% | 0hPa | 0V | 00:00:00 | 00:00:00 | 00:00:00 | |
| SP9KGR-15 | 2026-09-02 07:17:32 | 50.85740 | 21.61403 | 84° | 66km/h | 13455m | 2.0m/s | 0°C | 0% | 0hPa | 0V | 00:00:00 | 00:00:00 | 00:00:00 | |
| SP9KGR-15 | 2026-09-02 07:17:16 | 50.85667 | 21.60953 | 64° | 77km/h | 13396m | 0.7m/s | 0°C | 0% | 0hPa | 0V | 00:00:00 | 00:00:00 | 00:00:00 | |
| SQ9PSP-11 | 2026-09-02 07:17:13 | 50.85653 | 21.60871 | 64° | 73km/h | 13384m | 0.4m/s | 0°C | 0% | 0hPa | 0V | 00:00:00 | 00:00:00 | 00:00:00 | |
| SP9KGR-15 | 2026-09-02 07:17:00 | 50.85593 | 21.60526 | 67° | 73km/h | 13336m | 1.1m/s | 0°C | 0% | 0hPa | 0V | 00:00:00 | 00:00:00 | 00:00:00 | |
| SQ9PSP-11 | 2026-09-02 07:16:55 | 50.85571 | 21.60392 | 82° | 58km/h | 13318m | 2.3m/s | 0°C | 0% | 0hPa | 0V | 00:00:00 | 00:00:00 | 00:00:00 | |
| SP9KGR-15 | 2026-09-02 07:16:44 | 50.85516 | 21.60101 | 71° | 78km/h | 13279m | 3.4m/s | 0°C | 0% | 0hPa | 0V | 00:00:00 | 00:00:00 | 00:00:00 | |
| SQ9PSP-11 | 2026-09-02 07:16:34 | 50.85469 | 21.59830 | 84° | 66km/h | 13241m | 3.3m/s | 0°C | 0% | 0hPa | 0V | 00:00:00 | 00:00:00 | 00:00:00 | |
| SP9KGR-15 | 2026-09-02 07:16:29 | 50.85448 | 21.59698 | 68° | 75km/h | 13225m | 1.3m/s | 0°C | 0% | 0hPa | 0V | 00:00:00 | 00:00:00 | 00:00:00 | |
| SQ9PSP-11 | 2026-09-02 07:16:10 | 50.85377 | 21.59203 | 93° | 64km/h | 13153m | 1.8m/s | 0°C | 0% | 0hPa | 0V | 00:00:00 | 00:00:00 | 00:00:00 | |
| SP9KGR-15 | 2026-09-02 07:15:58 | 50.85327 | 21.58915 | 82° | 68km/h | 13108m | 1.6m/s | 0°C | 0% | 0hPa | 0V | 00:00:00 | 00:00:00 | 00:00:00 | |
| SQ9PSP-11 | 2026-09-02 07:15:55 | 50.85315 | 21.58847 | 80° | 68km/h | 13098m | 2.5m/s | 0°C | 0% | 0hPa | 0V | 00:00:00 | 00:00:00 | 00:00:00 | |
| SQ9PSP-11 | 2026-09-02 07:15:39 | 50.85260 | 21.58493 | 66° | 46km/h | 13040m | 2.8m/s | 0°C | 0% | 0hPa | 0V | 00:00:00 | 00:00:00 | 00:00:00 | |
| SQ9PSP-11 | 2026-09-02 07:15:24 | 50.85230 | 21.58159 | 79° | 51km/h | 12989m | 2.3m/s | 0°C | 0% | 0hPa | 0V | 00:00:00 | 00:00:00 | 00:00:00 | |
| SQ9PSP-11 | 2026-09-02 07:15:08 | 50.85212 | 21.57785 | 78° | 60km/h | 12931m | 2.5m/s | 0°C | 0% | 0hPa | 0V | 00:00:00 | 00:00:00 | 00:00:00 | |
| SP9KGR-15 | 2026-09-02 07:14:58 | 50.85216 | 21.57540 | 101° | 73km/h | 12896m | 2.8m/s | 0°C | 0% | 0hPa | 0V | 00:00:00 | 00:00:00 | 00:00:00 | |
| SQ9PSP-11 | 2026-09-02 07:14:51 | 50.85219 | 21.57361 | 94° | 57km/h | 12871m | 2.0m/s | 0°C | 0% | 0hPa | 0V | 00:00:00 | 00:00:00 | 00:00:00 | |
| SP9KGR-15 | 2026-09-02 07:14:38 | 50.85216 | 21.56995 | 86° | 88km/h | 12823m | 0.9m/s | 0°C | 0% | 0hPa | 0V | 00:00:00 | 00:00:00 | 00:00:00 | |
| SQ9PSP-11 | 2026-09-02 07:14:32 | 50.85215 | 21.56822 | 86° | 80km/h | 12802m | 2.2m/s | 0°C | 0% | 0hPa | 0V | 00:00:00 | 00:00:00 | 00:00:00 | |
| SP9KGR-15 | 2026-09-02 07:14:21 | 50.85214 | 21.56508 | 84° | 68km/h | 12761m | 2.1m/s | 0°C | 0% | 0hPa | 0V | 00:00:00 | 00:00:00 | 00:00:00 | |
| SQ9PSP-11 | 2026-09-02 07:14:15 | 50.85207 | 21.56320 | 84° | 77km/h | 12738m | 2.8m/s | 0°C | 0% | 0hPa | 0V | 00:00:00 | 00:00:00 | 00:00:00 | |
| SP9KGR-15 | 2026-09-02 07:14:03 | 50.85183 | 21.55923 | 76° | 80km/h | 12696m | 3.5m/s | 0°C | 0% | 0hPa | 0V | 00:00:00 | 00:00:00 | 00:00:00 | |
| SP9KGR-15 | 2026-09-02 07:13:46 | 50.85137 | 21.55378 | 85° | 71km/h | 12637m | 1.9m/s | 0°C | 0% | 0hPa | 0V | 00:00:00 | 00:00:00 | 00:00:00 | |
| SP9KGR-15 | 2026-09-02 07:13:30 | 50.85088 | 21.54898 | 73° | 84km/h | 12581m | 0.9m/s | 0°C | 0% | 0hPa | 0V | 00:00:00 | 00:00:00 | 00:00:00 | |
| SQ9PSP-11 | 2026-09-02 07:13:28 | 50.85083 | 21.54839 | 89° | 66km/h | 12575m | 0.1m/s | 0°C | 0% | 0hPa | 0V | 00:00:00 | 00:00:00 | 00:00:00 | |
| SP9KGR-15 | 2026-09-02 07:13:15 | 50.85045 | 21.54477 | 76° | 80km/h | 12524m | 1.4m/s | 0°C | 0% | 0hPa | 0V | 00:00:00 | 00:00:00 | 00:00:00 | |
| SP9KGR-15 | 2026-09-02 07:12:58 | 50.84979 | 21.53984 | 68° | 78km/h | 12461m | 1.2m/s | 0°C | 0% | 0hPa | 0V | 00:00:00 | 00:00:00 | 00:00:00 | |
| SQ9PSP-11 | 2026-09-02 07:12:49 | 50.84937 | 21.53722 | 66° | 78km/h | 12425m | 3.6m/s | 0°C | 0% | 0hPa | 0V | 00:00:00 | 00:00:00 | 00:00:00 | |
| SQ9PSP-11 | 2026-09-02 07:12:21 | 50.84789 | 21.52873 | 84° | 91km/h | 12321m | 1.3m/s | 0°C | 0% | 0hPa | 0V | 00:00:00 | 00:00:00 | 00:00:00 | |
| SQ9PSP-11 | 2026-09-02 07:12:04 | 50.84710 | 21.52348 | 72° | 73km/h | 12259m | 1.9m/s | 0°C | 0% | 0hPa | 0V | 00:00:00 | 00:00:00 | 00:00:00 | |
| SP9KGR-15 | 2026-09-02 07:11:27 | 50.84610 | 21.51273 | 84° | 78km/h | 12123m | 2.2m/s | 0°C | 0% | 0hPa | 0V | 00:00:00 | 00:00:00 | 00:00:00 | |
| SP9KGR-15 | 2026-09-02 07:11:08 | 50.84562 | 21.50774 | 83° | 60km/h | 12053m | 3.6m/s | 0°C | 0% | 0hPa | 0V | 00:00:00 | 00:00:00 | 00:00:00 | |
| SP9KGR-15 | 2026-09-02 07:10:46 | 50.84519 | 21.50221 | 75° | 58km/h | 11976m | 2.1m/s | 0°C | 0% | 0hPa | 0V | 00:00:00 | 00:00:00 | 00:00:00 | |
| SP9KGR-15 | 2026-09-02 07:10:30 | 50.84497 | 21.49802 | 86° | 75km/h | 11922m | 2.9m/s | 0°C | 0% | 0hPa | 0V | 00:00:00 | 00:00:00 | 00:00:00 | |
| SP9KGR-15 | 2026-09-02 07:10:11 | 50.84439 | 21.49262 | 74° | 69km/h | 11858m | 1.6m/s | 0°C | 0% | 0hPa | 0V | 00:00:00 | 00:00:00 | 00:00:00 | |
| SP9KGR-15 | 2026-09-02 07:09:52 | 50.84384 | 21.48673 | 84° | 89km/h | 11795m | 1.1m/s | 0°C | 0% | 0hPa | 0V | 00:00:00 | 00:00:00 | 00:00:00 | |
| SP9KGR-15 | 2026-09-02 07:09:36 | 50.84351 | 21.48158 | 89° | 78km/h | 11747m | 3.3m/s | 0°C | 0% | 0hPa | 0V | 00:00:00 | 00:00:00 | 00:00:00 | |
| SP9KGR-15 | 2026-09-02 07:09:15 | 50.84340 | 21.47449 | 83° | 77km/h | 11677m | 2.0m/s | 0°C | 0% | 0hPa | 0V | 00:00:00 | 00:00:00 | 00:00:00 | |
| SP9KGR-15 | 2026-09-02 07:03:33 | 50.84149 | 21.35127 | 99° | 89km/h | 10500m | 1.9m/s | 0°C | 0% | 0hPa | 0V | 00:00:00 | 00:00:00 | 00:00:00 | |
| SP9KGR-15 | 2026-09-02 07:03:06 | 50.84172 | 21.34197 | 93° | 95km/h | 10406m | 1.7m/s | 0°C | 0% | 0hPa | 0V | 00:00:00 | 00:00:00 | 00:00:00 | |
| SQ9PSP-11 | 2026-09-02 06:58:07 | 50.84439 | 21.25008 | 97° | 73km/h | 9412m | 2.3m/s | 0°C | 0% | 0hPa | 0V | 00:00:00 | 00:00:00 | 00:00:00 | |
| SQ9PSP-11 | 2026-09-02 06:57:43 | 50.84439 | 21.24347 | 98° | 71km/h | 9336m | 1.6m/s | 0°C | 0% | 0hPa | 0V | 00:00:00 | 00:00:00 | 00:00:00 |